Terminal Aerodrome Forecast
Issued by NWS Boston, MA

Home | Current Version | Previous Version | Text Only | Print | Product List | Glossary Off
Versions: 1 2 3 4 5 6 7 8 9 10 11 12 13 14 15 16 17 18 19
000 FTUS41 KBOX 241125 TAFBDL TAF KBDL 241125Z 2412/2518 33006KT P6SM -RA OVC040 FM241400 33007KT P6SM OVC040 FM241600 34010G18KT P6SM BKN040 FM242200 32009KT P6SM BKN040 FM250300 32006KT P6SM SCT060=

USA.gov is the U.S. government's official web portal to all federal, state and local government web resources and services.